sensor_id;sensor_type;location;lat;lon;timestamp;pressure;altitude;pressure_sealevel;temperature;humidity
72116;BME280;59991;52.140;5.428;2023-06-24T00:00:19;102453.75;;;18.95;74.51
72116;BME280;59991;52.140;5.428;2023-06-24T00:00:50;102452.19;;;18.94;74.86
72116;BME280;59991;52.140;5.428;2023-06-24T00:01:24;102446.66;;;18.94;74.84
72116;BME280;59991;52.140;5.428;2023-06-24T00:01:55;102451.00;;;18.95;74.49
72116;BME280;59991;52.140;5.428;2023-06-24T00:02:27;102447.44;;;18.94;75.36
72116;BME280;59991;52.140;5.428;2023-06-24T00:02:59;102452.19;;;18.94;74.45
72116;BME280;59991;52.140;5.428;2023-06-24T00:03:33;102452.97;;;18.94;75.21
72116;BME280;59991;52.140;5.428;2023-06-24T00:04:08;102443.47;;;18.92;74.89
72116;BME280;59991;52.140;5.428;2023-06-24T00:04:40;102449.81;;;18.92;75.47
72116;BME280;59991;52.140;5.428;2023-06-24T00:05:11;102452.16;;;18.90;75.71
72116;BME280;59991;52.140;5.428;2023-06-24T00:05:43;102454.94;;;18.90;75.69
72116;BME280;59991;52.140;5.428;2023-06-24T00:06:16;102455.31;;;18.89;75.71
72116;BME280;59991;52.140;5.428;2023-06-24T00:06:49;102453.75;;;18.88;75.31
72116;BME280;59991;52.140;5.428;2023-06-24T00:07:23;102455.31;;;18.89;74.99
72116;BME280;59991;52.140;5.428;2023-06-24T00:07:55;102452.56;;;18.89;75.51
72116;BME280;59991;52.140;5.428;2023-06-24T00:08:28;102445.47;;;18.88;75.16
72116;BME280;59991;52.140;5.428;2023-06-24T00:09:05;102452.97;;;18.87;75.44
72116;BME280;59991;52.140;5.428;2023-06-24T00:09:38;102451.78;;;18.88;75.19
72116;BME280;59991;52.140;5.428;2023-06-24T00:10:14;102452.97;;;18.87;75.59
72116;BME280;59991;52.140;5.428;2023-06-24T00:11:03;102458.47;;;18.87;75.21
72116;BME280;59991;52.140;5.428;2023-06-24T00:11:34;102456.13;;;18.86;75.11
72116;BME280;59991;52.140;5.428;2023-06-24T00:12:06;102455.72;;;18.87;75.01
72116;BME280;59991;52.140;5.428;2023-06-24T00:12:38;102452.16;;;18.87;75.80
72116;BME280;59991;52.140;5.428;2023-06-24T00:13:10;102457.69;;;18.87;76.04
72116;BME280;59991;52.140;5.428;2023-06-24T00:13:42;102457.69;;;18.87;76.01
72116;BME280;59991;52.140;5.428;2023-06-24T00:14:14;102455.34;;;18.85;76.31
72116;BME280;59991;52.140;5.428;2023-06-24T00:14:47;102464.41;;;18.86;76.12
72116;BME280;59991;52.140;5.428;2023-06-24T00:15:19;102464.41;;;18.86;76.71
72116;BME280;59991;52.140;5.428;2023-06-24T00:15:50;102452.59;;;18.85;76.42
72116;BME280;59991;52.140;5.428;2023-06-24T00:16:22;102460.88;;;18.85;76.25
72116;BME280;59991;52.140;5.428;2023-06-24T00:16:58;102456.53;;;18.84;76.00
72116;BME280;59991;52.140;5.428;2023-06-24T00:17:29;102456.53;;;18.84;76.05
72116;BME280;59991;52.140;5.428;2023-06-24T00:18:01;102453.78;;;18.81;75.59
72116;BME280;59991;52.140;5.428;2023-06-24T00:18:37;102459.69;;;18.83;76.22
72116;BME280;59991;52.140;5.428;2023-06-24T00:19:12;102460.88;;;18.82;75.34
72116;BME280;59991;52.140;5.428;2023-06-24T00:19:44;102463.63;;;18.82;75.44
72116;BME280;59991;52.140;5.428;2023-06-24T00:20:15;102471.13;;;18.81;75.72
72116;BME280;59991;52.140;5.428;2023-06-24T00:20:49;102458.91;;;18.79;75.20
72116;BME280;59991;52.140;5.428;2023-06-24T00:21:20;102467.19;;;18.79;76.03
72116;BME280;59991;52.140;5.428;2023-06-24T00:21:53;102466.00;;;18.80;76.04
72116;BME280;59991;52.140;5.428;2023-06-24T00:22:25;102467.56;;;18.77;76.85
72116;BME280;59991;52.140;5.428;2023-06-24T00:22:56;102462.84;;;18.78;76.28
72116;BME280;59991;52.140;5.428;2023-06-24T00:23:29;102464.03;;;18.77;76.48
72116;BME280;59991;52.140;5.428;2023-06-24T00:24:01;102470.72;;;18.76;76.87
72116;BME280;59991;52.140;5.428;2023-06-24T00:24:36;102470.72;;;18.76;76.89
72116;BME280;59991;52.140;5.428;2023-06-24T00:25:08;102466.78;;;18.73;76.83
72116;BME280;59991;52.140;5.428;2023-06-24T00:25:39;102467.97;;;18.72;77.23
72116;BME280;59991;52.140;5.428;2023-06-24T00:26:11;102470.72;;;18.72;76.92
72116;BME280;59991;52.140;5.428;2023-06-24T00:26:42;102468.75;;;18.69;76.31
72116;BME280;59991;52.140;5.428;2023-06-24T00:27:14;102466.78;;;18.70;76.72
72116;BME280;59991;52.140;5.428;2023-06-24T00:27:45;102464.00;;;18.70;76.36
72116;BME280;59991;52.140;5.428;2023-06-24T00:28:17;102470.72;;;18.69;76.10
72116;BME280;59991;52.140;5.428;2023-06-24T00:28:48;102465.19;;;18.69;76.10
72116;BME280;59991;52.140;5.428;2023-06-24T00:29:20;102467.16;;;18.68;76.41
72116;BME280;59991;52.140;5.428;2023-06-24T00:29:51;102462.81;;;18.67;77.18
72116;BME280;59991;52.140;5.428;2023-06-24T00:30:23;102462.44;;;18.65;77.17
72116;BME280;59991;52.140;5.428;2023-06-24T00:30:54;102458.09;;;18.64;76.82
72116;BME280;59991;52.140;5.428;2023-06-24T00:31:26;102460.06;;;18.63;76.36
72116;BME280;59991;52.140;5.428;2023-06-24T00:31:57;102455.34;;;18.64;76.76
72116;BME280;59991;52.140;5.428;2023-06-24T00:32:29;102451.78;;;18.63;76.74
72116;BME280;59991;52.140;5.428;2023-06-24T00:33:00;102454.56;;;18.63;77.15
72116;BME280;59991;52.140;5.428;2023-06-24T00:33:32;102462.84;;;18.63;77.49
72116;BME280;59991;52.140;5.428;2023-06-24T00:34:07;102456.13;;;18.61;77.46
72116;BME280;59991;52.140;5.428;2023-06-24T00:34:39;102467.97;;;18.61;76.74
72116;BME280;59991;52.140;5.428;2023-06-24T00:35:14;102458.88;;;18.61;76.49
72116;BME280;59991;52.140;5.428;2023-06-24T00:35:46;102457.31;;;18.60;76.61
72116;BME280;59991;52.140;5.428;2023-06-24T00:36:18;102463.63;;;18.60;76.92
72116;BME280;59991;52.140;5.428;2023-06-24T00:36:50;102471.13;;;18.60;77.58
72116;BME280;59991;52.140;5.428;2023-06-24T00:37:22;102465.59;;;18.60;77.31
72116;BME280;59991;52.140;5.428;2023-06-24T00:37:53;102467.91;;;18.58;76.90
72116;BME280;59991;52.140;5.428;2023-06-24T00:38:29;102475.84;;;18.59;77.42
72116;BME280;59991;52.140;5.428;2023-06-24T00:39:04;102467.13;;;18.57;77.11
72116;BME280;59991;52.140;5.428;2023-06-24T00:39:36;102464.75;;;18.56;76.98
72116;BME280;59991;52.140;5.428;2023-06-24T00:40:07;102462.78;;;18.53;77.56
72116;BME280;59991;52.140;5.428;2023-06-24T00:40:42;102468.31;;;18.53;77.66
72116;BME280;59991;52.140;5.428;2023-06-24T00:41:16;102463.56;;;18.50;77.52
72116;BME280;59991;52.140;5.428;2023-06-24T00:41:48;102463.97;;;18.52;77.34
72116;BME280;59991;52.140;5.428;2023-06-24T00:42:19;102463.56;;;18.50;77.49
72116;BME280;59991;52.140;5.428;2023-06-24T00:42:51;102465.53;;;18.49;77.49
72116;BME280;59991;52.140;5.428;2023-06-24T00:43:23;102459.63;;;18.51;77.10
72116;BME280;59991;52.140;5.428;2023-06-24T00:43:55;102460.00;;;18.49;77.11
72116;BME280;59991;52.140;5.428;2023-06-24T00:44:28;102461.97;;;18.49;77.29
72116;BME280;59991;52.140;5.428;2023-06-24T00:45:00;102458.06;;;18.46;77.76
72116;BME280;59991;52.140;5.428;2023-06-24T00:45:35;102462.78;;;18.46;76.87
72116;BME280;59991;52.140;5.428;2023-06-24T00:46:07;102463.19;;;18.44;76.84
72116;BME280;59991;52.140;5.428;2023-06-24T00:46:38;102458.84;;;18.43;77.21
72116;BME280;59991;52.140;5.428;2023-06-24T00:47:11;102469.09;;;18.43;77.40
72116;BME280;59991;52.140;5.428;2023-06-24T00:47:42;102469.88;;;18.43;76.29
72116;BME280;59991;52.140;5.428;2023-06-24T00:48:14;102468.28;;;18.42;76.68
72116;BME280;59991;52.140;5.428;2023-06-24T00:48:46;102474.63;;;18.43;77.09
72116;BME280;59991;52.140;5.428;2023-06-24T00:49:17;102469.47;;;18.41;77.03
72116;BME280;59991;52.140;5.428;2023-06-24T00:49:49;102473.81;;;18.42;76.83
72116;BME280;59991;52.140;5.428;2023-06-24T00:50:20;102463.97;;;18.41;76.94
72116;BME280;59991;52.140;5.428;2023-06-24T00:50:52;102470.28;;;18.42;76.80
72116;BME280;59991;52.140;5.428;2023-06-24T00:51:23;102465.13;;;18.40;76.92
72116;BME280;59991;52.140;5.428;2023-06-24T00:52:01;102466.72;;;18.41;76.91
72116;BME280;59991;52.140;5.428;2023-06-24T00:52:33;102466.31;;;18.39;77.58
72116;BME280;59991;52.140;5.428;2023-06-24T00:53:04;102467.50;;;18.38;76.92
72116;BME280;59991;52.140;5.428;2023-06-24T00:53:36;102461.19;;;18.38;77.29
72116;BME280;59991;52.140;5.428;2023-06-24T00:54:08;102464.34;;;18.36;76.84
72116;BME280;59991;52.140;5.428;2023-06-24T00:54:39;102467.47;;;18.35;76.77
72116;BME280;59991;52.140;5.428;2023-06-24T00:55:12;102466.69;;;18.34;77.08
72116;BME280;59991;52.140;5.428;2023-06-24T00:55:46;102458.78;;;18.33;76.69
72116;BME280;59991;52.140;5.428;2023-06-24T00:56:19;102470.22;;;18.31;76.51
72116;BME280;59991;52.140;5.428;2023-06-24T00:56:52;102466.28;;;18.32;77.18
72116;BME280;59991;52.140;5.428;2023-06-24T00:57:26;102464.72;;;18.31;76.71
72116;BME280;59991;52.140;5.428;2023-06-24T00:58:00;102460.38;;;18.30;77.52
72116;BME280;59991;52.140;5.428;2023-06-24T00:58:33;102467.06;;;18.29;77.41
72116;BME280;59991;52.140;5.428;2023-06-24T00:59:06;102467.06;;;18.29;77.29
72116;BME280;59991;52.140;5.428;2023-06-24T00:59:40;102464.31;;;18.25;77.20
72116;BME280;59991;52.140;5.428;2023-06-24T01:00:14;102467.88;;;18.26;77.76
72116;BME280;59991;52.140;5.428;2023-06-24T01:00:49;102460.38;;;18.23;77.33
72116;BME280;59991;52.140;5.428;2023-06-24T01:01:30;102465.09;;;18.22;77.32
72116;BME280;59991;52.140;5.428;2023-06-24T01:02:04;102462.72;;;18.21;77.43
72116;BME280;59991;52.140;5.428;2023-06-24T01:02:36;102457.97;;;18.18;77.25
72116;BME280;59991;52.140;5.428;2023-06-24T01:03:10;102457.97;;;18.18;77.45
72116;BME280;59991;52.140;5.428;2023-06-24T01:03:43;102460.34;;;18.16;77.43
72116;BME280;59991;52.140;5.428;2023-06-24T01:04:15;102454.03;;;18.15;77.32
72116;BME280;59991;52.140;5.428;2023-06-24T01:04:48;102452.03;;;18.12;77.34
72116;BME280;59991;52.140;5.428;2023-06-24T01:05:19;102457.94;;;18.11;77.28
72116;BME280;59991;52.140;5.428;2023-06-24T01:05:55;102459.53;;;18.12;77.27
72116;BME280;59991;52.140;5.428;2023-06-24T01:06:27;102458.72;;;18.11;77.41
72116;BME280;59991;52.140;5.428;2023-06-24T01:07:01;102454.03;;;18.08;77.41
72116;BME280;59991;52.140;5.428;2023-06-24T01:07:33;102453.22;;;18.08;77.58
72116;BME280;59991;52.140;5.428;2023-06-24T01:08:07;102449.66;;;18.07;76.86
72116;BME280;59991;52.140;5.428;2023-06-24T01:08:38;102451.66;;;18.07;76.72
72116;BME280;59991;52.140;5.428;2023-06-24T01:09:10;102446.91;;;18.04;77.17
72116;BME280;59991;52.140;5.428;2023-06-24T01:09:41;102456.75;;;18.05;76.98
72116;BME280;59991;52.140;5.428;2023-06-24T01:10:13;102443.72;;;18.02;77.72
72116;BME280;59991;52.140;5.428;2023-06-24T01:10:45;102440.97;;;18.02;77.34
72116;BME280;59991;52.140;5.428;2023-06-24T01:11:17;102453.19;;;18.01;77.74
72116;BME280;59991;52.140;5.428;2023-06-24T01:11:49;102441.34;;;18.00;77.26
72116;BME280;59991;52.140;5.428;2023-06-24T01:12:20;102450.03;;;17.99;77.35
72116;BME280;59991;52.140;5.428;2023-06-24T01:12:52;102448.44;;;17.98;77.70
72116;BME280;59991;52.140;5.428;2023-06-24T01:13:23;102452.78;;;17.99;77.48
72116;BME280;59991;52.140;5.428;2023-06-24T01:13:55;102448.44;;;17.98;77.87
72116;BME280;59991;52.140;5.428;2023-06-24T01:14:27;102450.41;;;17.97;77.83
72116;BME280;59991;52.140;5.428;2023-06-24T01:14:59;102448.03;;;17.95;77.61
72116;BME280;59991;52.140;5.428;2023-06-24T01:15:30;102447.25;;;17.95;77.58
72116;BME280;59991;52.140;5.428;2023-06-24T01:16:06;102449.22;;;17.94;77.83
72116;BME280;59991;52.140;5.428;2023-06-24T01:16:52;102451.97;;;17.94;77.40
72116;BME280;59991;52.140;5.428;2023-06-24T01:18:32;102453.16;;;17.93;78.04
72116;BME280;59991;52.140;5.428;2023-06-24T01:19:23;102450.00;;;17.91;78.08
72116;BME280;59991;52.140;5.428;2023-06-24T01:20:08;102457.88;;;17.89;78.43
72116;BME280;59991;52.140;5.428;2023-06-24T01:22:04;102447.63;;;17.86;78.04
72116;BME280;59991;52.140;5.428;2023-06-24T01:23:02;102445.25;;;17.85;77.69
72116;BME280;59991;52.140;5.428;2023-06-24T01:24:47;102449.19;;;17.84;77.84
72116;BME280;59991;52.140;5.428;2023-06-24T01:25:44;102448.41;;;17.83;78.05
72116;BME280;59991;52.140;5.428;2023-06-24T01:27:36;102448.75;;;17.78;78.33
72116;BME280;59991;52.140;5.428;2023-06-24T01:28:20;102449.16;;;17.77;78.77
72116;BME280;59991;52.140;5.428;2023-06-24T01:29:06;102447.94;;;17.74;78.46
72116;BME280;59991;52.140;5.428;2023-06-24T01:29:50;102442.41;;;17.71;78.39
72116;BME280;59991;52.140;5.428;2023-06-24T01:31:48;102443.59;;;17.66;78.53
72116;BME280;59991;52.140;5.428;2023-06-24T01:32:35;102445.13;;;17.64;78.80
72116;BME280;59991;52.140;5.428;2023-06-24T01:33:13;102442.75;;;17.62;79.11
72116;BME280;59991;52.140;5.428;2023-06-24T01:33:58;102445.50;;;17.62;79.00
72116;BME280;59991;52.140;5.428;2023-06-24T01:34:37;102439.59;;;17.60;79.25
72116;BME280;59991;52.140;5.428;2023-06-24T01:35:19;102438.00;;;17.59;79.18
72116;BME280;59991;52.140;5.428;2023-06-24T01:35:52;102438.38;;;17.57;79.84
72116;BME280;59991;52.140;5.428;2023-06-24T01:36:27;102442.31;;;17.56;80.32
72116;BME280;59991;52.140;5.428;2023-06-24T01:37:15;102437.97;;;17.55;79.87
72116;BME280;59991;52.140;5.428;2023-06-24T01:37:51;102438.34;;;17.54;80.32
72116;BME280;59991;52.140;5.428;2023-06-24T01:38:31;102443.47;;;17.52;80.66
72116;BME280;59991;52.140;5.428;2023-06-24T01:39:08;102441.13;;;17.50;80.32
72116;BME280;59991;52.140;5.428;2023-06-24T01:39:56;102442.69;;;17.51;80.12
72116;BME280;59991;52.140;5.428;2023-06-24T01:41:07;102440.34;;;17.50;80.65
72116;BME280;59991;52.140;5.428;2023-06-24T01:41:40;102438.75;;;17.49;80.15
72116;BME280;59991;52.140;5.428;2023-06-24T01:42:14;102442.69;;;17.48;80.92
72116;BME280;59991;52.140;5.428;2023-06-24T01:42:47;102442.69;;;17.48;80.94
72116;BME280;59991;52.140;5.428;2023-06-24T01:43:22;102441.09;;;17.47;81.24
72116;BME280;59991;52.140;5.428;2023-06-24T01:43:55;102435.19;;;17.45;81.07
72116;BME280;59991;52.140;5.428;2023-06-24T01:44:28;102440.28;;;17.43;81.21
72116;BME280;59991;52.140;5.428;2023-06-24T01:45:00;102440.69;;;17.45;81.06
72116;BME280;59991;52.140;5.428;2023-06-24T01:45:36;102443.03;;;17.43;81.12
72116;BME280;59991;52.140;5.428;2023-06-24T01:46:09;102443.03;;;17.43;81.05
72116;BME280;59991;52.140;5.428;2023-06-24T01:46:42;102446.97;;;17.42;80.66
72116;BME280;59991;52.140;5.428;2023-06-24T01:47:20;102448.56;;;17.43;81.00
72116;BME280;59991;52.140;5.428;2023-06-24T01:48:08;102448.56;;;17.43;81.07
72116;BME280;59991;52.140;5.428;2023-06-24T01:48:42;102447.38;;;17.44;80.89
72116;BME280;59991;52.140;5.428;2023-06-24T01:49:15;102454.06;;;17.43;80.92
72116;BME280;59991;52.140;5.428;2023-06-24T01:49:49;102452.47;;;17.42;80.99
72116;BME280;59991;52.140;5.428;2023-06-24T01:50:24;102454.06;;;17.43;80.95
72116;BME280;59991;52.140;5.428;2023-06-24T01:50:59;102461.56;;;17.42;81.07
72116;BME280;59991;52.140;5.428;2023-06-24T01:51:32;102445.00;;;17.42;81.35
72116;BME280;59991;52.140;5.428;2023-06-24T01:52:07;102450.53;;;17.42;81.97
72116;BME280;59991;52.140;5.428;2023-06-24T01:52:43;102446.97;;;17.42;82.13
72116;BME280;59991;52.140;5.428;2023-06-24T01:53:16;102441.47;;;17.42;82.00
72116;BME280;59991;52.140;5.428;2023-06-24T01:53:51;102443.41;;;17.41;82.35
72116;BME280;59991;52.140;5.428;2023-06-24T01:54:23;102451.69;;;17.41;82.08
72116;BME280;59991;52.140;5.428;2023-06-24T01:54:58;102443.41;;;17.41;81.58
72116;BME280;59991;52.140;5.428;2023-06-24T01:55:31;102445.38;;;17.41;82.37
72116;BME280;59991;52.140;5.428;2023-06-24T01:56:06;102442.22;;;17.39;81.65
72116;BME280;59991;52.140;5.428;2023-06-24T01:56:39;102446.56;;;17.40;82.14
72116;BME280;59991;52.140;5.428;2023-06-24T01:57:13;102446.56;;;17.40;82.04
72116;BME280;59991;52.140;5.428;2023-06-24T01:57:49;102444.97;;;17.39;82.26
72116;BME280;59991;52.140;5.428;2023-06-24T01:58:22;102444.19;;;17.38;82.25
72116;BME280;59991;52.140;5.428;2023-06-24T01:58:55;102444.97;;;17.39;81.81
72116;BME280;59991;52.140;5.428;2023-06-24T01:59:29;102446.16;;;17.38;81.99
72116;BME280;59991;52.140;5.428;2023-06-24T02:00:01;102450.09;;;17.37;81.95
72116;BME280;59991;52.140;5.428;2023-06-24T02:00:37;102444.56;;;17.37;82.43
72116;BME280;59991;52.140;5.428;2023-06-24T02:01:10;102447.31;;;17.37;82.58
72116;BME280;59991;52.140;5.428;2023-06-24T02:01:43;102440.22;;;17.36;82.18
72116;BME280;59991;52.140;5.428;2023-06-24T02:02:16;102439.06;;;17.37;82.35
72116;BME280;59991;52.140;5.428;2023-06-24T02:02:52;102438.25;;;17.36;82.25
72116;BME280;59991;52.140;5.428;2023-06-24T02:03:25;102441.81;;;17.37;82.26
72116;BME280;59991;52.140;5.428;2023-06-24T02:04:00;102448.50;;;17.36;82.04
72116;BME280;59991;52.140;5.428;2023-06-24T02:04:33;102445.34;;;17.34;82.65
72116;BME280;59991;52.140;5.428;2023-06-24T02:05:07;102442.56;;;17.34;82.69
72116;BME280;59991;52.140;5.428;2023-06-24T02:05:40;102441.00;;;17.33;82.50
72116;BME280;59991;52.140;5.428;2023-06-24T02:06:16;102439.03;;;17.33;82.23
72116;BME280;59991;52.140;5.428;2023-06-24T02:06:49;102438.22;;;17.33;82.19
72116;BME280;59991;52.140;5.428;2023-06-24T02:07:23;102436.69;;;17.32;82.24
72116;BME280;59991;52.140;5.428;2023-06-24T02:07:57;102436.69;;;17.32;82.52
72116;BME280;59991;52.140;5.428;2023-06-24T02:08:32;102433.94;;;17.32;82.63
72116;BME280;59991;52.140;5.428;2023-06-24T02:09:06;102436.69;;;17.32;82.48
72116;BME280;59991;52.140;5.428;2023-06-24T02:09:39;102428.00;;;17.30;82.47
72116;BME280;59991;52.140;5.428;2023-06-24T02:10:11;102428.78;;;17.30;81.99
72116;BME280;59991;52.140;5.428;2023-06-24T02:10:44;102432.34;;;17.31;82.44
72116;BME280;59991;52.140;5.428;2023-06-24T02:11:17;102435.09;;;17.31;82.81
72116;BME280;59991;52.140;5.428;2023-06-24T02:11:50;102439.81;;;17.30;82.53
72116;BME280;59991;52.140;5.428;2023-06-24T02:12:23;102439.81;;;17.30;82.17
72116;BME280;59991;52.140;5.428;2023-06-24T02:12:56;102437.44;;;17.29;82.40
72116;BME280;59991;52.140;5.428;2023-06-24T02:13:32;102440.63;;;17.31;82.51
72116;BME280;59991;52.140;5.428;2023-06-24T02:14:07;102431.56;;;17.30;82.41
72116;BME280;59991;52.140;5.428;2023-06-24T02:14:40;102437.84;;;17.31;82.63
72116;BME280;59991;52.140;5.428;2023-06-24T02:15:13;102434.69;;;17.29;82.49
72116;BME280;59991;52.140;5.428;2023-06-24T02:15:45;102432.72;;;17.29;82.56
72116;BME280;59991;52.140;5.428;2023-06-24T02:16:18;102429.56;;;17.27;82.82
72116;BME280;59991;52.140;5.428;2023-06-24T02:16:51;102429.56;;;17.27;83.19
72116;BME280;59991;52.140;5.428;2023-06-24T02:17:27;102435.44;;;17.25;83.13
72116;BME280;59991;52.140;5.428;2023-06-24T02:18:02;102435.44;;;17.25;83.36
72116;BME280;59991;52.140;5.428;2023-06-24T02:18:37;102428.75;;;17.23;83.26
72116;BME280;59991;52.140;5.428;2023-06-24T02:19:10;102430.69;;;17.22;82.71
72116;BME280;59991;52.140;5.428;2023-06-24T02:19:42;102428.31;;;17.21;83.11
72116;BME280;59991;52.140;5.428;2023-06-24T02:20:16;102422.03;;;17.20;82.82
72116;BME280;59991;52.140;5.428;2023-06-24T02:20:49;102431.47;;;17.19;83.00
72116;BME280;59991;52.140;5.428;2023-06-24T02:21:21;102436.97;;;17.19;83.20
72116;BME280;59991;52.140;5.428;2023-06-24T02:21:56;102435.41;;;17.18;82.81
72116;BME280;59991;52.140;5.428;2023-06-24T02:22:28;102429.47;;;17.16;83.16
72116;BME280;59991;52.140;5.428;2023-06-24T02:23:00;102423.97;;;17.16;82.79
72116;BME280;59991;52.140;5.428;2023-06-24T02:23:35;102441.66;;;17.15;82.99
72116;BME280;59991;52.140;5.428;2023-06-24T02:24:08;102425.50;;;17.14;82.66
72116;BME280;59991;52.140;5.428;2023-06-24T02:24:40;102434.97;;;17.13;82.80
72116;BME280;59991;52.140;5.428;2023-06-24T02:25:13;102437.72;;;17.13;82.72
72116;BME280;59991;52.140;5.428;2023-06-24T02:25:44;102435.38;;;17.11;82.46
72116;BME280;59991;52.140;5.428;2023-06-24T02:26:16;102435.38;;;17.11;82.62
72116;BME280;59991;52.140;5.428;2023-06-24T02:26:49;102433.78;;;17.10;82.86
72116;BME280;59991;52.140;5.428;2023-06-24T02:27:23;102437.72;;;17.09;82.56
72116;BME280;59991;52.140;5.428;2023-06-24T02:27:55;102435.34;;;17.08;82.92
72116;BME280;59991;52.140;5.428;2023-06-24T02:28:28;102430.63;;;17.08;82.21
72116;BME280;59991;52.140;5.428;2023-06-24T02:29:00;102433.38;;;17.08;82.33
72116;BME280;59991;52.140;5.428;2023-06-24T02:29:33;102432.56;;;17.08;82.52
72116;BME280;59991;52.140;5.428;2023-06-24T02:30:07;102430.19;;;17.06;82.72
72116;BME280;59991;52.140;5.428;2023-06-24T02:30:39;102426.66;;;17.06;82.85
72116;BME280;59991;52.140;5.428;2023-06-24T02:31:12;102428.63;;;17.05;82.60
72116;BME280;59991;52.140;5.428;2023-06-24T02:31:44;102427.81;;;17.05;82.53
72116;BME280;59991;52.140;5.428;2023-06-24T02:32:16;102425.06;;;17.05;82.46
72116;BME280;59991;52.140;5.428;2023-06-24T02:32:47;102433.72;;;17.03;82.80
72116;BME280;59991;52.140;5.428;2023-06-24T02:33:19;102423.88;;;17.02;82.69
72116;BME280;59991;52.140;5.428;2023-06-24T02:33:50;102430.97;;;17.03;82.37
72116;BME280;59991;52.140;5.428;2023-06-24T02:34:23;102424.66;;;17.03;82.16
72116;BME280;59991;52.140;5.428;2023-06-24T02:34:57;102432.13;;;17.02;82.81
72116;BME280;59991;52.140;5.428;2023-06-24T02:35:29;102428.59;;;17.02;82.19
72116;BME280;59991;52.140;5.428;2023-06-24T02:36:00;102424.25;;;17.01;82.02
72116;BME280;59991;52.140;5.428;2023-06-24T02:36:32;102423.47;;;17.00;82.26
72116;BME280;59991;52.140;5.428;2023-06-24T02:37:04;102421.88;;;16.99;82.43
72116;BME280;59991;52.140;5.428;2023-06-24T02:37:35;102419.91;;;17.00;82.33
72116;BME280;59991;52.140;5.428;2023-06-24T02:38:07;102417.53;;;16.98;82.11
72116;BME280;59991;52.140;5.428;2023-06-24T02:38:39;102421.09;;;16.99;82.52
72116;BME280;59991;52.140;5.428;2023-06-24T02:39:10;102417.53;;;16.98;82.90
72116;BME280;59991;52.140;5.428;2023-06-24T02:39:42;102414.00;;;16.98;83.15
72116;BME280;59991;52.140;5.428;2023-06-24T02:40:15;102421.09;;;16.99;83.25
72116;BME280;59991;52.140;5.428;2023-06-24T02:40:48;102419.50;;;16.98;83.16
72116;BME280;59991;52.140;5.428;2023-06-24T02:41:20;102417.53;;;16.98;83.48
72116;BME280;59991;52.140;5.428;2023-06-24T02:41:52;102407.69;;;16.97;83.23
72116;BME280;59991;52.140;5.428;2023-06-24T02:42:23;102411.63;;;16.96;83.36
72116;BME280;59991;52.140;5.428;2023-06-24T02:42:56;102415.94;;;16.97;83.51
72116;BME280;59991;52.140;5.428;2023-06-24T02:43:27;102416.75;;;16.98;83.23
72116;BME280;59991;52.140;5.428;2023-06-24T02:43:59;102406.09;;;16.96;83.28
72116;BME280;59991;52.140;5.428;2023-06-24T02:44:30;102412.78;;;16.95;83.17
72116;BME280;59991;52.140;5.428;2023-06-24T02:45:03;102409.25;;;16.95;83.49
72116;BME280;59991;52.140;5.428;2023-06-24T02:45:35;102421.06;;;16.95;83.66
72116;BME280;59991;52.140;5.428;2023-06-24T02:46:07;102413.97;;;16.94;83.41
72116;BME280;59991;52.140;5.428;2023-06-24T02:46:41;102416.72;;;16.94;83.66
72116;BME280;59991;52.140;5.428;2023-06-24T02:47:14;102417.91;;;16.93;83.46
72116;BME280;59991;52.140;5.428;2023-06-24T02:47:47;102417.91;;;16.93;83.66
72116;BME280;59991;52.140;5.428;2023-06-24T02:48:20;102419.09;;;16.92;83.84
72116;BME280;59991;52.140;5.428;2023-06-24T02:48:53;102413.16;;;16.90;83.56
72116;BME280;59991;52.140;5.428;2023-06-24T02:49:25;102419.47;;;16.90;83.92
72116;BME280;59991;52.140;5.428;2023-06-24T02:49:57;102412.75;;;16.88;83.59
72116;BME280;59991;52.140;5.428;2023-06-24T02:50:29;102417.09;;;16.89;83.65
72116;BME280;59991;52.140;5.428;2023-06-24T02:51:02;102411.97;;;16.87;83.52
72116;BME280;59991;52.140;5.428;2023-06-24T02:51:34;102417.09;;;16.89;83.90
72116;BME280;59991;52.140;5.428;2023-06-24T02:52:07;102416.31;;;16.88;83.83
72116;BME280;59991;52.140;5.428;2023-06-24T02:52:39;102425.34;;;16.89;83.64
72116;BME280;59991;52.140;5.428;2023-06-24T02:53:11;102425.34;;;16.89;83.67
72116;BME280;59991;52.140;5.428;2023-06-24T02:53:45;102420.63;;;16.89;83.92
72116;BME280;59991;52.140;5.428;2023-06-24T02:54:17;102421.81;;;16.88;84.00
72116;BME280;59991;52.140;5.428;2023-06-24T02:54:49;102418.25;;;16.88;83.96
72116;BME280;59991;52.140;5.428;2023-06-24T02:55:21;102422.97;;;16.87;84.25
72116;BME280;59991;52.140;5.428;2023-06-24T02:55:54;102421.00;;;16.88;84.50
72116;BME280;59991;52.140;5.428;2023-06-24T02:56:27;102422.56;;;16.85;84.55
72116;BME280;59991;52.140;5.428;2023-06-24T02:56:59;102417.47;;;16.87;83.95
72116;BME280;59991;52.140;5.428;2023-06-24T02:57:33;102417.84;;;16.86;83.94
72116;BME280;59991;52.140;5.428;2023-06-24T02:58:08;102415.09;;;16.86;84.14
72116;BME280;59991;52.140;5.428;2023-06-24T02:58:40;102421.41;;;16.86;84.22
72116;BME280;59991;52.140;5.428;2023-06-24T02:59:11;102416.69;;;16.87;84.25
72116;BME280;59991;52.140;5.428;2023-06-24T02:59:43;102425.75;;;16.87;84.27
72116;BME280;59991;52.140;5.428;2023-06-24T03:00:15;102424.16;;;16.86;83.95
72116;BME280;59991;52.140;5.428;2023-06-24T03:00:47;102430.44;;;16.87;84.41
72116;BME280;59991;52.140;5.428;2023-06-24T03:01:21;102425.75;;;16.87;84.20
72116;BME280;59991;52.140;5.428;2023-06-24T03:01:56;102421.78;;;16.85;84.45
72116;BME280;59991;52.140;5.428;2023-06-24T03:02:29;102424.53;;;16.85;84.54
72116;BME280;59991;52.140;5.428;2023-06-24T03:03:01;102420.97;;;16.84;84.71